createdAt,value
2019-05-02T00:00:16.525Z,25.6
2019-05-02T00:05:39.237Z,27.799999
2019-05-02T00:11:02.072Z,26.6
2019-05-02T00:16:24.844Z,27.299999
2019-05-02T00:21:47.517Z,27.299999
2019-05-02T00:27:10.177Z,26.1
2019-05-02T00:32:33.593Z,29
2019-05-02T00:37:57.326Z,27.6
2019-05-02T00:43:20.190Z,25.700001
2019-05-02T00:48:43.134Z,25.299999
2019-05-02T00:54:05.934Z,25
2019-05-02T00:59:28.605Z,24.1
2019-05-02T01:04:51.283Z,24.299999
2019-05-02T01:10:17.191Z,24.200001
2019-05-02T01:15:38.952Z,26.299999
2019-05-02T01:21:06.681Z,25.700001
2019-05-02T01:26:30.534Z,25.4
2019-05-02T01:31:54.612Z,24.799999
2019-05-02T01:37:20.578Z,24.700001
2019-05-02T01:42:44.388Z,24.299999
2019-05-02T01:48:05.100Z,26
2019-05-02T01:53:29.117Z,24.9
2019-05-02T01:58:52.898Z,25.4
2019-05-02T02:04:16.112Z,25.5
2019-05-02T02:09:43.350Z,26.700001
2019-05-02T02:15:01.261Z,25.299999
2019-05-02T02:20:23.981Z,25.5
2019-05-02T02:25:46.645Z,26.200001
2019-05-02T02:31:09.285Z,27.1
2019-05-02T02:36:34.596Z,27
2019-05-02T02:41:56.548Z,28.700001
2019-05-02T02:47:21.058Z,26.799999
2019-05-02T02:52:44.442Z,28.9
2019-05-02T02:58:06.768Z,28.200001
2019-05-02T03:03:32.846Z,29.299999
2019-05-02T03:08:53.971Z,28.1
2019-05-02T03:14:16.675Z,27.799999
2019-05-02T03:19:39.336Z,28
2019-05-02T03:25:02.025Z,28.6
2019-05-02T03:30:31.262Z,27.700001
2019-05-02T03:35:49.517Z,27.1
2019-05-02T03:41:13.054Z,27.9
2019-05-02T03:46:35.482Z,28
2019-05-02T03:52:02.508Z,26.5
2019-05-02T03:57:31.513Z,26.799999
2019-05-02T04:02:45.710Z,27.6
2019-05-02T04:08:19.394Z,26.299999
2019-05-02T04:13:36.156Z,25.299999
2019-05-02T04:18:58.103Z,26.1
2019-05-02T04:24:20.441Z,25.4
2019-05-02T04:29:43.081Z,26
2019-05-02T04:35:05.776Z,25.5
2019-05-02T04:40:28.510Z,25.700001
2019-05-02T04:45:55.950Z,24.9
2019-05-02T04:51:17.359Z,23.9
2019-05-02T04:56:49.347Z,26
2019-05-02T05:02:04.499Z,25.4
2019-05-02T05:07:30.924Z,26.4
2019-05-02T05:12:51.805Z,27.299999
2019-05-02T05:18:14.678Z,26.1
2019-05-02T05:23:38.104Z,25.1
2019-05-02T05:29:01.062Z,24.299999
2019-05-02T05:34:28.368Z,24.200001
2019-05-02T05:39:48.594Z,23.9
2019-05-02T05:45:13.726Z,24.700001
2019-05-02T05:50:37.563Z,25.9
2019-05-02T05:56:02.338Z,26.4
2019-05-02T06:01:25.868Z,28
2019-05-02T06:06:47.953Z,25
2019-05-02T06:12:09.876Z,25.299999
2019-05-02T06:17:32.531Z,25.6
2019-05-02T06:22:59.881Z,25.6
2019-05-02T06:28:18.943Z,25.799999
2019-05-02T06:33:41.630Z,24.299999
2019-05-02T06:39:04.381Z,23.700001
2019-05-02T06:44:27.000Z,26
2019-05-02T06:49:49.695Z,25.200001
2019-05-02T06:55:12.340Z,26.6
2019-05-02T07:00:45.200Z,25.1
2019-05-02T07:06:02.638Z,27.299999
2019-05-02T07:11:23.924Z,29.9
2019-05-02T07:16:49.565Z,28.299999
2019-05-02T07:22:10.400Z,27.5
2019-05-02T07:27:33.852Z,27.700001
2019-05-02T07:33:01.087Z,27.9
2019-05-02T07:38:25.547Z,29.5
2019-05-02T07:43:44.558Z,29.799999
2019-05-02T07:49:07.295Z,30.299999
2019-05-02T07:54:30.091Z,29.5
2019-05-02T07:59:54.803Z,28.799999
2019-05-02T08:05:21.461Z,29
2019-05-02T08:10:40.464Z,29.700001
2019-05-02T08:16:03.351Z,32.299999
2019-05-02T08:21:27.154Z,31.1
2019-05-02T08:26:53.317Z,31.6
2019-05-02T08:32:13.836Z,31.200001
2019-05-02T08:37:40.924Z,32.099998
2019-05-02T08:43:03.384Z,31
2019-05-02T08:48:24.663Z,32.299999
2019-05-02T08:53:51.967Z,34.099998
2019-05-02T08:59:11.848Z,36.099998
2019-05-02T09:04:34.655Z,36.299999
2019-05-02T09:10:00.130Z,36.400002
2019-05-02T09:15:22.465Z,31.799999
2019-05-02T09:20:46.894Z,34.900002
2019-05-02T09:26:11.724Z,33.5
2019-05-02T09:31:36.655Z,34.299999
2019-05-02T09:36:57.055Z,32.400002
2019-05-02T09:42:21.593Z,34.099998
2019-05-02T09:47:55.724Z,32.700001
2019-05-02T09:53:07.382Z,28.6
2019-05-02T09:58:31.987Z,30.799999
2019-05-02T10:03:54.161Z,33.200001
2019-05-02T10:09:18.603Z,31.6
2019-05-02T10:14:42.106Z,34
2019-05-02T10:20:04.306Z,33
2019-05-02T10:25:30.647Z,29.700001
2019-05-02T10:30:52.398Z,31.799999
2019-05-02T10:36:19.507Z,29.700001
2019-05-02T10:41:39.285Z,30.9
2019-05-02T10:47:02.820Z,29.200001
2019-05-02T10:52:29.410Z,28.799999
2019-05-02T10:57:49.060Z,28.1
2019-05-02T11:03:12.087Z,29.299999
2019-05-02T11:08:36.596Z,29.1
2019-05-02T11:14:00.578Z,29
2019-05-02T11:19:21.910Z,27.799999
2019-05-02T11:24:44.433Z,26.299999
2019-05-02T11:30:07.134Z,26.4
2019-05-02T11:35:31.615Z,25.9
2019-05-02T11:40:53.500Z,26.799999
2019-05-02T11:46:16.220Z,26
2019-05-02T11:51:39.102Z,25.200001
2019-05-02T11:57:02.288Z,24.1
2019-05-02T12:02:24.501Z,23.5
2019-05-02T12:07:47.242Z,25.1
2019-05-02T12:13:11.757Z,24.5
2019-05-02T12:18:33.485Z,25.5
2019-05-02T12:23:56.168Z,26.1
2019-05-02T12:29:18.781Z,25.799999
2019-05-02T12:34:42.022Z,27.9
2019-05-02T12:40:04.097Z,26.4
2019-05-02T12:45:26.734Z,26.200001
2019-05-02T12:50:49.611Z,26.4
2019-05-02T12:56:12.203Z,26.1
2019-05-02T13:01:34.865Z,26.299999
2019-05-02T13:06:57.464Z,27.4
2019-05-02T13:12:22.298Z,28.1
2019-05-02T13:17:48.777Z,50.700001
2019-05-02T13:23:08.127Z,29.6
2019-05-02T13:28:32.416Z,30.5
2019-05-02T13:33:54.340Z,36.099998
2019-05-02T13:39:17.583Z,42.5
2019-05-02T13:44:41.652Z,43
2019-05-02T13:50:04.118Z,42.900002
2019-05-02T13:55:26.358Z,43.799999
2019-05-02T14:00:48.952Z,42.099998
2019-05-02T14:06:12.355Z,41.799999
2019-05-02T14:11:34.247Z,44.5
2019-05-02T14:16:56.954Z,45.900002
2019-05-02T14:22:19.564Z,49.200001
2019-05-02T14:27:42.318Z,47.599998
2019-05-02T14:33:04.853Z,48.5
2019-05-02T14:38:27.495Z,47.700001
2019-05-02T14:43:52.996Z,47.700001
2019-05-02T14:49:16.587Z,46.5
2019-05-02T14:54:42.842Z,50.299999
2019-05-02T15:00:03.230Z,49.099998
2019-05-02T15:05:29.454Z,49
2019-05-02T15:10:54.326Z,51.299999
2019-05-02T15:16:17.529Z,47.599998
2019-05-02T15:21:37.583Z,44.5
2019-05-02T15:27:03.574Z,42.599998
2019-05-02T15:32:25.505Z,44.200001
2019-05-02T15:37:48.119Z,44.5
2019-05-02T15:43:12.460Z,40.5
2019-05-02T15:48:35.919Z,38.200001
2019-05-02T15:54:05.822Z,33.700001
2019-05-02T15:59:23.587Z,32
2019-05-02T16:04:46.406Z,31.700001
2019-05-02T16:10:09.030Z,31.4
2019-05-02T16:15:32.585Z,25.9
2019-05-02T16:21:04.646Z,24.1
2019-05-02T16:26:18.843Z,24.6
2019-05-02T16:31:42.405Z,25.200001
2019-05-02T16:37:06.950Z,29.299999
2019-05-02T16:42:28.504Z,25.5
2019-05-02T16:47:58.494Z,24.6
2019-05-02T16:53:17.117Z,25.4
2019-05-02T16:58:43.207Z,20.1
2019-05-02T17:04:06.564Z,17.299999
2019-05-02T17:09:28.677Z,17.5
2019-05-02T17:14:54.632Z,17.1
2019-05-02T17:20:16.588Z,17.299999
2019-05-02T17:25:38.600Z,17.200001
2019-05-02T17:31:04.801Z,17.9
2019-05-02T17:36:28.367Z,18.299999
2019-05-02T17:41:52.528Z,18.700001
2019-05-02T17:47:15.413Z,18.700001
2019-05-02T17:52:39.040Z,20.1
2019-05-02T17:58:04.427Z,20.9
2019-05-02T18:03:30.853Z,21.299999
2019-05-02T18:08:51.507Z,21.799999
2019-05-02T18:14:19.487Z,20.9
2019-05-02T18:19:37.160Z,20.700001
2019-05-02T18:25:01.727Z,23.700001
2019-05-02T18:30:26.810Z,23
2019-05-02T18:35:47.569Z,23.200001
2019-05-02T18:41:12.025Z,23.200001
2019-05-02T18:46:36.667Z,24.1
2019-05-02T18:51:57.908Z,23.5
2019-05-02T18:57:22.317Z,21.6
2019-05-02T19:02:44.645Z,20.799999
2019-05-02T19:08:07.783Z,15.3
2019-05-02T19:13:32.662Z,12.5
2019-05-02T19:18:57.344Z,12.9
2019-05-02T19:24:19.118Z,8.9
2019-05-02T19:29:42.438Z,8.1
2019-05-02T19:35:06.889Z,6.9
2019-05-02T19:40:28.599Z,6.6
2019-05-02T19:45:53.984Z,6.7
2019-05-02T19:51:18.370Z,5.5
2019-05-02T19:56:43.785Z,5
2019-05-02T20:02:05.982Z,4.4
2019-05-02T20:07:26.556Z,4.8
2019-05-02T20:12:50.838Z,4.8
2019-05-02T20:18:13.541Z,5
2019-05-02T20:23:37.304Z,5.2
2019-05-02T20:29:02.024Z,5.2
2019-05-02T20:34:24.376Z,5.5
2019-05-02T20:39:47.414Z,5
2019-05-02T20:45:11.617Z,4.9
2019-05-02T20:50:33.964Z,5
2019-05-02T20:55:56.611Z,5.3
2019-05-02T21:01:19.314Z,4.7
2019-05-02T21:06:44.013Z,4
2019-05-02T21:12:06.022Z,4.5
2019-05-02T21:17:28.712Z,5.6
2019-05-02T21:22:52.912Z,5.7
2019-05-02T21:28:15.107Z,6
2019-05-02T21:33:37.368Z,5.8
2019-05-02T21:39:00.109Z,4.9
2019-05-02T21:44:22.777Z,5.1
2019-05-02T21:49:45.483Z,4
2019-05-02T21:55:09.371Z,4
2019-05-02T22:00:32.753Z,3.7
2019-05-02T22:05:54.849Z,3.9
2019-05-02T22:11:17.556Z,4.4
2019-05-02T22:16:42.044Z,3.8
2019-05-02T22:22:03.959Z,4.1
2019-05-02T22:27:26.634Z,4.5
2019-05-02T22:32:49.662Z,4.4
2019-05-02T22:38:12.364Z,4.6
2019-05-02T22:43:35.134Z,4.5
2019-05-02T22:48:57.830Z,5.3
2019-05-02T22:54:27.562Z,5
2019-05-02T22:59:43.273Z,5.1
2019-05-02T23:05:05.968Z,5.1
2019-05-02T23:10:28.694Z,5.4
2019-05-02T23:15:52.376Z,5.5
2019-05-02T23:21:15.070Z,6.2
2019-05-02T23:26:37.849Z,6.2
2019-05-02T23:32:02.244Z,5.9
2019-05-02T23:37:24.267Z,6.7
2019-05-02T23:42:47.484Z,6.5
2019-05-02T23:48:12.524Z,6.4
2019-05-02T23:53:34.450Z,7.2
2019-05-02T23:58:57.202Z,7.8
